createdAt,value
2022-08-09T00:00:13.244Z,2.17
2022-08-09T00:02:42.893Z,2.37
2022-08-09T00:06:15.426Z,2.17
2022-08-09T00:08:11.089Z,2.60
2022-08-09T00:10:40.261Z,1.97
2022-08-09T00:13:17.198Z,2.20
2022-08-09T00:15:59.668Z,2.00
2022-08-09T00:18:35.031Z,2.50
2022-08-09T00:21:08.936Z,2.40
2022-08-09T00:23:56.330Z,2.60
2022-08-09T00:26:29.819Z,2.10
2022-08-09T00:29:01.793Z,2.37
2022-08-09T00:31:58.361Z,2.63
2022-08-09T00:34:19.159Z,2.07
2022-08-09T00:36:48.281Z,2.40
2022-08-09T00:40:08.965Z,2.47
2022-08-09T00:44:15.389Z,2.10
2022-08-09T00:44:51.012Z,2.10
2022-08-09T00:47:21.865Z,2.17
2022-08-09T00:49:56.627Z,2.40
2022-08-09T00:52:30.175Z,1.73
2022-08-09T00:55:01.185Z,1.97
2022-08-09T00:57:34.288Z,2.47
2022-08-09T01:00:21.264Z,1.97
2022-08-09T01:03:09.431Z,2.27
2022-08-09T01:05:54.902Z,2.83
2022-08-09T01:08:45.672Z,2.97
2022-08-09T01:11:42.058Z,2.53
2022-08-09T01:14:36.850Z,2.53
2022-08-09T01:17:17.814Z,2.70
2022-08-09T01:20:09.878Z,2.50
2022-08-09T01:22:45.730Z,3.23
2022-08-09T01:25:57.417Z,2.23
2022-08-09T01:28:26.180Z,2.63
2022-08-09T01:30:58.975Z,2.37
2022-08-09T01:33:31.013Z,3.03
2022-08-09T01:36:07.609Z,3.00
2022-08-09T01:38:44.298Z,2.60
2022-08-09T01:41:25.954Z,2.70
2022-08-09T01:43:57.905Z,2.70
2022-08-09T01:46:31.684Z,2.67
2022-08-09T01:49:09.579Z,2.40
2022-08-09T01:51:44.618Z,2.80
2022-08-09T01:54:32.639Z,2.97
2022-08-09T01:57:08.936Z,3.07
2022-08-09T01:59:50.839Z,2.53
2022-08-09T02:02:30.917Z,2.93
2022-08-09T02:05:05.228Z,2.60
2022-08-09T02:08:40.763Z,2.53
2022-08-09T02:10:30.429Z,2.83
2022-08-09T02:13:04.073Z,2.77
2022-08-09T02:15:49.208Z,2.97
2022-08-09T02:18:29.270Z,2.40
2022-08-09T02:21:03.031Z,2.60
2022-08-09T02:23:43.054Z,3.20
2022-08-09T02:26:26.804Z,2.87
2022-08-09T02:29:00.377Z,3.20
2022-08-09T02:31:40.593Z,2.87
2022-08-09T02:34:40.961Z,3.10
2022-08-09T02:37:14.953Z,3.00
2022-08-09T02:40:01.808Z,3.43
2022-08-09T02:42:42.108Z,2.77
2022-08-09T02:45:29.229Z,3.00
2022-08-09T02:48:03.676Z,3.40
2022-08-09T02:50:41.411Z,2.87
2022-08-09T02:53:25.966Z,2.60
2022-08-09T02:55:59.159Z,2.83
2022-08-09T02:58:35.680Z,2.70
2022-08-09T03:01:08.190Z,2.53
2022-08-09T03:04:17.690Z,2.60
2022-08-09T03:06:29.334Z,3.17
2022-08-09T03:08:57.777Z,3.17
2022-08-09T03:12:04.158Z,2.33
2022-08-09T03:14:15.904Z,3.17
2022-08-09T03:16:45.194Z,3.03
2022-08-09T03:19:59.416Z,2.37
2022-08-09T03:22:11.770Z,2.50
2022-08-09T03:24:51.025Z,2.40
2022-08-09T03:27:22.234Z,2.60
2022-08-09T03:29:57.933Z,2.80
2022-08-09T03:32:37.192Z,2.83
2022-08-09T03:35:09.198Z,2.20
2022-08-09T03:37:55.835Z,3.37
2022-08-09T03:40:24.639Z,2.70
2022-08-09T03:42:52.018Z,3.33
2022-08-09T03:46:04.011Z,2.80
2022-08-09T03:48:06.526Z,3.20
2022-08-09T03:50:36.259Z,3.10
2022-08-09T03:53:06.211Z,2.77
2022-08-09T03:55:40.939Z,3.10
2022-08-09T03:58:16.891Z,3.40
2022-08-09T04:00:49.608Z,2.57
2022-08-09T04:03:24.575Z,3.17
2022-08-09T04:06:04.678Z,3.23
2022-08-09T04:08:34.804Z,3.23
2022-08-09T04:11:02.957Z,3.57
2022-08-09T04:14:37.693Z,3.47
2022-08-09T04:16:21.608Z,3.83
2022-08-09T04:18:51.174Z,3.03
2022-08-09T04:21:19.182Z,3.30
2022-08-09T04:23:53.666Z,3.33
2022-08-09T04:26:23.395Z,3.33
2022-08-09T04:28:51.804Z,2.77
2022-08-09T04:31:21.136Z,3.67
2022-08-09T04:33:52.591Z,3.10
2022-08-09T04:36:28.204Z,3.93
2022-08-09T04:39:01.963Z,3.20
2022-08-09T04:41:33.230Z,3.50
2022-08-09T04:44:11.013Z,2.80
2022-08-09T04:46:59.386Z,3.70
2022-08-09T04:49:53.415Z,3.60
2022-08-09T04:52:32.425Z,3.57
2022-08-09T04:55:05.071Z,3.40
2022-08-09T04:57:58.444Z,3.60
2022-08-09T05:00:24.693Z,3.30
2022-08-09T05:02:59.292Z,2.93
2022-08-09T05:05:52.019Z,2.90
2022-08-09T05:08:20.136Z,3.20
2022-08-09T05:10:48.455Z,2.90
2022-08-09T05:13:15.432Z,3.20
2022-08-09T05:15:48.171Z,2.80
2022-08-09T05:18:55.093Z,1.90
2022-08-09T05:21:10.086Z,2.43
2022-08-09T05:23:53.843Z,3.07
2022-08-09T05:26:36.355Z,2.10
2022-08-09T05:29:17.673Z,2.67
2022-08-09T05:31:50.706Z,2.47
2022-08-09T05:34:31.358Z,3.00
2022-08-09T05:37:07.048Z,2.20
2022-08-09T05:39:43.223Z,2.83
2022-08-09T05:42:17.227Z,2.23
2022-08-09T05:44:54.598Z,2.40
2022-08-09T05:47:24.167Z,2.60
2022-08-09T05:50:29.980Z,2.73
2022-08-09T05:52:43.640Z,2.90
2022-08-09T05:55:20.512Z,2.70
2022-08-09T05:57:51.057Z,3.10
2022-08-09T06:00:28.611Z,2.93
2022-08-09T06:03:02.237Z,2.23
2022-08-09T06:05:54.782Z,2.23
2022-08-09T06:08:24.497Z,3.00
2022-08-09T06:10:56.964Z,2.27
2022-08-09T06:13:26.216Z,2.57
2022-08-09T06:15:55.916Z,2.50
2022-08-09T06:18:23.963Z,2.60
2022-08-09T06:20:58.305Z,2.20
2022-08-09T06:23:58.171Z,2.00
2022-08-09T06:26:20.129Z,2.27
2022-08-09T06:29:01.168Z,2.07
2022-08-09T06:31:40.265Z,2.37
2022-08-09T06:34:22.528Z,1.90
2022-08-09T06:36:59.282Z,1.90
2022-08-09T06:39:48.334Z,1.87
2022-08-09T06:42:24.587Z,2.40
2022-08-09T06:44:57.304Z,2.33
2022-08-09T06:47:25.078Z,2.10
2022-08-09T06:50:13.267Z,2.47
2022-08-09T06:52:48.669Z,2.17
2022-08-09T06:55:23.042Z,2.20
2022-08-09T06:58:02.721Z,2.00
2022-08-09T07:00:56.498Z,2.63
2022-08-09T07:03:19.707Z,2.37
2022-08-09T07:06:04.532Z,1.93
2022-08-09T07:08:37.020Z,1.80
2022-08-09T07:11:05.153Z,1.80
2022-08-09T07:13:44.978Z,2.20
2022-08-09T07:16:42.093Z,1.97
2022-08-09T07:19:15.123Z,2.40
2022-08-09T07:21:55.922Z,1.77
2022-08-09T07:24:32.814Z,2.10
2022-08-09T07:27:27.360Z,2.30
2022-08-09T07:29:59.888Z,2.33
2022-08-09T07:32:33.487Z,2.00
2022-08-09T07:35:11.796Z,2.17
2022-08-09T07:37:45.779Z,2.30
2022-08-09T07:40:18.264Z,2.10
2022-08-09T07:42:59.018Z,2.00
2022-08-09T07:45:39.645Z,2.50
2022-08-09T07:48:29.652Z,2.33
2022-08-09T07:51:09.370Z,2.33
2022-08-09T07:54:05.043Z,2.17
2022-08-09T07:56:37.044Z,2.40
2022-08-09T07:59:33.690Z,1.67
2022-08-09T08:02:07.031Z,2.20
2022-08-09T08:04:36.622Z,1.87
2022-08-09T08:07:09.321Z,1.90
2022-08-09T08:10:08.894Z,2.47
2022-08-09T08:12:43.770Z,2.17
2022-08-09T08:15:24.162Z,1.93
2022-08-09T08:17:57.859Z,2.23
2022-08-09T08:20:32.589Z,2.63
2022-08-09T08:23:17.173Z,2.20
2022-08-09T08:25:50.154Z,2.50
2022-08-09T08:28:32.491Z,1.80
2022-08-09T08:31:10.587Z,1.87
2022-08-09T08:33:52.359Z,2.13
2022-08-09T08:36:29.333Z,1.90
2022-08-09T08:39:01.265Z,1.93
2022-08-09T08:41:50.398Z,1.93
2022-08-09T08:44:23.289Z,1.70
2022-08-09T08:47:02.654Z,2.23
2022-08-09T08:49:46.804Z,1.67
2022-08-09T08:52:57.982Z,1.90
2022-08-09T08:55:13.581Z,2.20
2022-08-09T08:57:42.659Z,2.33
2022-08-09T09:00:16.878Z,2.10
2022-08-09T09:02:52.989Z,2.07
2022-08-09T09:05:33.382Z,3.67
2022-08-09T09:08:31.066Z,1.80
2022-08-09T09:11:04.425Z,2.30
2022-08-09T09:13:54.794Z,1.60
2022-08-09T09:16:32.289Z,2.70
2022-08-09T09:19:36.948Z,1.80
2022-08-09T09:22:04.086Z,1.90
2022-08-09T09:24:49.222Z,2.23
2022-08-09T09:28:03.681Z,1.80
2022-08-09T09:30:40.681Z,2.17
2022-08-09T09:33:16.139Z,1.83
2022-08-09T09:36:01.428Z,1.73
2022-08-09T09:39:08.781Z,2.07
2022-08-09T09:41:49.712Z,2.40
2022-08-09T09:44:35.580Z,1.90
2022-08-09T09:47:16.339Z,2.00
2022-08-09T09:50:14.266Z,1.97
2022-08-09T09:52:56.943Z,2.07
2022-08-09T09:55:32.586Z,1.93
2022-08-09T09:58:18.669Z,1.67
2022-08-09T10:00:58.534Z,1.80
2022-08-09T10:03:57.083Z,2.20
2022-08-09T10:06:42.764Z,2.10
2022-08-09T10:09:22.820Z,1.87
2022-08-09T10:12:11.626Z,2.30
2022-08-09T10:14:44.153Z,1.83
2022-08-09T10:17:39.295Z,1.73
2022-08-09T10:20:27.789Z,2.53
2022-08-09T10:23:20.407Z,1.87
2022-08-09T10:26:06.007Z,2.27
2022-08-09T10:28:35.197Z,2.40
2022-08-09T10:34:08.729Z,1.43
2022-08-09T10:36:42.232Z,1.60
2022-08-09T10:39:15.439Z,2.23
2022-08-09T10:41:46.279Z,1.80
2022-08-09T10:44:21.530Z,2.27
2022-08-09T10:48:12.266Z,1.83
2022-08-09T10:51:06.746Z,1.60
2022-08-09T10:54:05.069Z,1.90
2022-08-09T10:56:37.997Z,1.77
2022-08-09T10:59:30.816Z,1.80
2022-08-09T11:03:15.112Z,1.80
2022-08-09T11:05:30.305Z,1.47
2022-08-09T11:08:47.513Z,1.73
2022-08-09T11:11:19.513Z,1.63
2022-08-09T11:14:07.440Z,1.87
2022-08-09T11:16:39.030Z,1.93
2022-08-09T11:19:10.278Z,1.90
2022-08-09T11:22:05.358Z,2.20
2022-08-09T11:25:15.080Z,2.03
2022-08-09T11:28:03.665Z,2.20
2022-08-09T11:30:37.662Z,2.00
2022-08-09T11:33:30.791Z,1.60
2022-08-09T11:36:00.741Z,1.83
2022-08-09T11:38:35.347Z,2.00
2022-08-09T11:41:13.008Z,1.70
2022-08-09T11:43:48.891Z,2.07
2022-08-09T11:46:26.804Z,1.70
2022-08-09T11:49:05.397Z,1.80
2022-08-09T11:52:59.206Z,2.00
2022-08-09T11:55:52.021Z,1.67
2022-08-09T11:58:19.915Z,1.83
2022-08-09T12:01:08.379Z,1.50
2022-08-09T12:03:57.045Z,1.37
2022-08-09T12:06:32.562Z,1.70
2022-08-09T12:09:19.450Z,1.40
2022-08-09T12:12:02.307Z,1.30
2022-08-09T12:14:40.777Z,1.67
2022-08-09T12:17:34.440Z,1.30
2022-08-09T12:20:23.517Z,1.27
2022-08-09T12:23:03.699Z,1.53
2022-08-09T12:25:37.098Z,1.37
2022-08-09T12:29:10.985Z,1.40
2022-08-09T12:31:10.898Z,1.40
2022-08-09T12:33:58.822Z,1.70
2022-08-09T12:36:32.079Z,1.73
2022-08-09T12:39:00.837Z,1.70
2022-08-09T12:41:39.164Z,1.33
2022-08-09T12:44:12.751Z,1.40
2022-08-09T12:46:48.810Z,1.40
2022-08-09T12:49:18.009Z,1.63
2022-08-09T12:52:02.394Z,1.10
2022-08-09T12:56:11.727Z,1.50
2022-08-09T12:57:46.971Z,1.60
2022-08-09T13:00:17.549Z,1.60
2022-08-09T13:02:57.582Z,1.17
2022-08-09T13:05:51.788Z,1.07
2022-08-09T13:08:40.010Z,1.50
2022-08-09T13:11:13.273Z,1.33
2022-08-09T13:14:37.041Z,1.10
2022-08-09T13:16:47.982Z,1.20
2022-08-09T13:20:07.574Z,1.30
2022-08-09T13:22:35.901Z,1.43
2022-08-09T13:25:14.198Z,1.70
2022-08-09T13:27:54.686Z,1.27
2022-08-09T13:30:50.670Z,1.60
2022-08-09T13:33:22.934Z,1.27
2022-08-09T13:36:38.769Z,1.30
2022-08-09T13:38:55.429Z,1.43
2022-08-09T13:41:58.041Z,1.77
2022-08-09T13:44:13.814Z,0.97
2022-08-09T13:47:26.963Z,1.80
2022-08-09T13:49:39.863Z,1.13
2022-08-09T13:52:24.620Z,0.90
2022-08-09T13:54:59.287Z,1.10
2022-08-09T13:57:39.806Z,1.77
2022-08-09T14:00:28.449Z,1.43
2022-08-09T14:03:03.939Z,1.57
2022-08-09T14:06:01.353Z,1.40
2022-08-09T14:08:31.610Z,1.50
2022-08-09T14:11:00.496Z,1.30
2022-08-09T14:14:23.378Z,1.60
2022-08-09T14:16:28.372Z,1.57
2022-08-09T14:18:58.113Z,1.30
2022-08-09T14:21:29.169Z,1.40
2022-08-09T14:24:00.982Z,1.20
2022-08-09T14:26:33.717Z,1.40
2022-08-09T14:29:08.080Z,1.20
2022-08-09T14:31:55.080Z,1.27
2022-08-09T14:34:31.243Z,1.23
2022-08-09T14:37:08.245Z,1.30
2022-08-09T14:39:46.634Z,1.30
2022-08-09T14:42:31.149Z,1.50
2022-08-09T14:46:40.560Z,1.27
2022-08-09T14:47:58.661Z,1.37
2022-08-09T14:50:31.224Z,1.67
2022-08-09T14:53:01.194Z,1.20
2022-08-09T14:55:29.157Z,1.40
2022-08-09T14:58:01.019Z,1.87
2022-08-09T15:00:32.115Z,1.20
2022-08-09T15:03:03.785Z,1.57
2022-08-09T15:05:31.971Z,1.70
2022-08-09T15:08:00.413Z,1.60
2022-08-09T15:10:31.513Z,1.40
2022-08-09T15:13:01.474Z,1.63
2022-08-09T15:15:34.438Z,1.50
2022-08-09T15:18:14.379Z,1.50
2022-08-09T15:21:57.883Z,1.20
2022-08-09T15:24:05.635Z,1.30
2022-08-09T15:26:19.235Z,1.40
2022-08-09T15:29:04.479Z,1.80
2022-08-09T15:31:41.530Z,1.20
2022-08-09T15:34:32.270Z,1.20
2022-08-09T15:36:58.075Z,1.80
2022-08-09T15:39:43.914Z,1.47
2022-08-09T15:42:14.779Z,1.17
2022-08-09T15:44:42.434Z,1.70
2022-08-09T15:47:14.615Z,1.47
2022-08-09T15:50:03.891Z,1.27
2022-08-09T15:52:36.122Z,1.40
2022-08-09T15:55:06.983Z,1.10
2022-08-09T15:57:51.135Z,1.10
2022-08-09T16:00:25.186Z,1.30
2022-08-09T16:02:54.722Z,1.10
2022-08-09T16:05:47.466Z,1.27
2022-08-09T16:08:30.168Z,1.00
2022-08-09T16:11:02.226Z,1.10
2022-08-09T16:14:04.273Z,1.27
2022-08-09T16:16:26.073Z,1.23
2022-08-09T16:18:55.670Z,1.40
2022-08-09T16:21:25.203Z,1.10
2022-08-09T16:23:58.741Z,1.40
2022-08-09T16:26:34.129Z,1.13
2022-08-09T16:29:11.084Z,1.27
2022-08-09T16:32:19.527Z,1.50
2022-08-09T16:34:54.752Z,1.33
2022-08-09T16:37:55.604Z,1.50
2022-08-09T16:40:13.709Z,1.00
2022-08-09T16:42:45.631Z,1.23
2022-08-09T16:45:18.720Z,1.10
2022-08-09T16:48:41.192Z,1.20
2022-08-09T16:50:38.665Z,1.20
2022-08-09T16:53:06.890Z,1.30
2022-08-09T16:55:59.842Z,1.33
2022-08-09T16:58:24.923Z,1.33
2022-08-09T17:00:52.960Z,1.80
2022-08-09T17:03:22.839Z,1.50
2022-08-09T17:06:03.508Z,1.30
2022-08-09T17:09:01.520Z,1.07
2022-08-09T17:11:33.025Z,1.30
2022-08-09T17:14:25.701Z,1.10
2022-08-09T17:16:54.621Z,0.97
2022-08-09T17:19:22.044Z,0.90
2022-08-09T17:21:55.576Z,1.20
2022-08-09T17:24:28.024Z,0.90
2022-08-09T17:26:58.486Z,1.50
2022-08-09T17:29:31.656Z,1.30
2022-08-09T17:32:05.312Z,1.30
2022-08-09T17:35:02.055Z,1.10
2022-08-09T17:37:21.175Z,1.10
2022-08-09T17:39:53.702Z,0.90
2022-08-09T17:42:41.631Z,1.20
2022-08-09T17:45:23.768Z,1.10
2022-08-09T17:48:02.506Z,1.10
2022-08-09T17:50:37.189Z,0.80
2022-08-09T17:53:10.473Z,1.20
2022-08-09T17:55:48.781Z,1.20
2022-08-09T17:58:18.987Z,1.10
2022-08-09T18:00:48.091Z,1.20
2022-08-09T18:03:17.609Z,1.23
2022-08-09T18:05:45.405Z,1.40
2022-08-09T18:08:22.049Z,1.10
2022-08-09T18:11:01.647Z,1.57
2022-08-09T18:13:40.128Z,1.37
2022-08-09T18:16:30.469Z,1.30
2022-08-09T18:19:03.907Z,1.20
2022-08-09T18:21:47.142Z,1.40
2022-08-09T18:24:17.449Z,1.33
2022-08-09T18:26:46.955Z,1.43
2022-08-09T18:30:35.189Z,1.70
2022-08-09T18:32:05.404Z,1.50
2022-08-09T18:34:35.435Z,1.27
2022-08-09T18:37:10.350Z,1.30
2022-08-09T18:39:55.369Z,1.30
2022-08-09T18:42:29.177Z,1.70
2022-08-09T18:45:00.823Z,1.50
2022-08-09T18:47:32.710Z,1.90
2022-08-09T18:50:09.014Z,1.40
2022-08-09T18:52:37.761Z,1.60
2022-08-09T18:55:13.729Z,1.83
2022-08-09T18:57:44.674Z,1.83
2022-08-09T19:00:20.046Z,1.83
2022-08-09T19:02:51.325Z,1.40
2022-08-09T19:05:49.161Z,1.37
2022-08-09T19:08:18.405Z,1.73
2022-08-09T19:10:47.903Z,1.43
2022-08-09T19:13:20.902Z,1.00
2022-08-09T19:16:02.559Z,1.60
2022-08-09T19:18:33.098Z,1.57
2022-08-09T19:21:08.794Z,1.73
2022-08-09T19:24:35.982Z,1.63
2022-08-09T19:26:34.767Z,1.57
2022-08-09T19:29:15.564Z,1.60
2022-08-09T19:31:51.191Z,1.80
2022-08-09T19:34:23.011Z,1.70
2022-08-09T19:36:56.249Z,1.87
2022-08-09T19:39:43.221Z,1.90
2022-08-09T19:42:15.357Z,1.57
2022-08-09T19:44:50.509Z,1.47
2022-08-09T19:47:23.258Z,1.40
2022-08-09T19:50:06.933Z,1.77
2022-08-09T19:52:37.507Z,1.40
2022-08-09T19:55:17.539Z,1.23
2022-08-09T19:57:46.583Z,1.60
2022-08-09T20:00:15.997Z,1.70
2022-08-09T20:04:17.341Z,1.90
2022-08-09T20:05:46.077Z,1.70
2022-08-09T20:08:16.144Z,1.37
2022-08-09T20:10:52.532Z,1.60
2022-08-09T20:13:20.745Z,1.80
2022-08-09T20:16:34.927Z,1.90
2022-08-09T20:18:35.670Z,1.93
2022-08-09T20:21:03.676Z,1.50
2022-08-09T20:23:39.133Z,1.73
2022-08-09T20:26:13.303Z,1.80
2022-08-09T20:28:47.688Z,1.70
2022-08-09T20:31:15.865Z,1.30
2022-08-09T20:33:44.055Z,1.63
2022-08-09T20:36:13.124Z,1.80
2022-08-09T20:41:35.435Z,1.70
2022-08-09T20:44:10.141Z,2.17
2022-08-09T20:46:44.331Z,1.87
2022-08-09T20:49:16.675Z,1.50
2022-08-09T20:51:50.571Z,2.60
2022-08-09T20:54:18.328Z,1.80
2022-08-09T20:56:49.465Z,2.23
2022-08-09T20:59:17.789Z,1.67
2022-08-09T21:02:04.781Z,1.50
2022-08-09T21:05:57.759Z,1.60
2022-08-09T21:07:19.243Z,1.80
2022-08-09T21:09:56.852Z,1.47
2022-08-09T21:15:23.728Z,1.70
2022-08-09T21:18:23.093Z,1.37
2022-08-09T21:20:50.267Z,2.33
2022-08-09T21:23:36.118Z,1.80
2022-08-09T21:26:09.824Z,1.70
2022-08-09T21:28:37.179Z,1.60
2022-08-09T21:31:13.597Z,1.63
2022-08-09T21:33:51.440Z,3.70
2022-08-09T21:36:25.917Z,1.47
2022-08-09T21:38:59.828Z,1.60
2022-08-09T21:42:03.589Z,1.57
2022-08-09T21:44:34.601Z,2.27
2022-08-09T21:47:09.185Z,1.93
2022-08-09T21:49:42.563Z,1.60
2022-08-09T21:52:18.497Z,1.80
2022-08-09T21:55:03.033Z,1.80
2022-08-09T21:57:38.611Z,2.27
2022-08-09T22:00:32.304Z,2.13
2022-08-09T22:03:12.544Z,2.20
2022-08-09T22:05:47.545Z,2.20
2022-08-09T22:08:18.831Z,1.73
2022-08-09T22:11:04.837Z,1.83
2022-08-09T22:13:37.171Z,2.10
2022-08-09T22:16:09.100Z,2.30
2022-08-09T22:18:53.121Z,1.90
2022-08-09T22:21:45.316Z,2.40
2022-08-09T22:24:21.186Z,2.37
2022-08-09T22:26:53.303Z,2.20
2022-08-09T22:29:28.966Z,1.87
2022-08-09T22:31:59.444Z,2.23
2022-08-09T22:34:27.458Z,2.47
2022-08-09T22:36:59.658Z,2.50
2022-08-09T22:39:57.183Z,2.00
2022-08-09T22:42:20.689Z,2.23
2022-08-09T22:48:06.161Z,2.00
2022-08-09T22:48:16.724Z,2.27
2022-08-09T22:50:26.910Z,2.10
2022-08-09T22:52:57.916Z,2.10
2022-08-09T22:55:39.781Z,2.17
2022-08-09T22:58:31.063Z,2.13
2022-08-09T23:01:03.682Z,2.00
2022-08-09T23:04:03.673Z,2.40
2022-08-09T23:06:35.785Z,2.20
2022-08-09T23:09:05.813Z,2.00
2022-08-09T23:11:33.079Z,2.60
2022-08-09T23:14:00.390Z,1.80
2022-08-09T23:16:27.464Z,2.37
2022-08-09T23:18:54.525Z,2.90
2022-08-09T23:21:26.845Z,1.80
2022-08-09T23:24:05.260Z,2.63
2022-08-09T23:26:36.073Z,2.60
2022-08-09T23:29:04.942Z,2.30
2022-08-09T23:31:31.935Z,2.63
2022-08-09T23:33:59.175Z,2.20
2022-08-09T23:36:27.010Z,2.10
2022-08-09T23:38:54.020Z,2.13
2022-08-09T23:41:28.601Z,2.00
2022-08-09T23:44:01.864Z,2.43
2022-08-09T23:46:30.004Z,1.83
2022-08-09T23:48:58.618Z,2.10
2022-08-09T23:51:26.942Z,2.43
2022-08-09T23:54:02.377Z,1.97
2022-08-09T23:56:52.860Z,2.00
2022-08-09T23:59:23.160Z,1.97
